createdAt,value
2023-03-30T00:02:13.185Z,0.87
2023-03-30T00:07:38.174Z,1.27
2023-03-30T00:13:01.014Z,1.10
2023-03-30T00:18:23.993Z,1.23
2023-03-30T00:23:49.053Z,0.90
2023-03-30T00:29:12.052Z,1.03
2023-03-30T00:34:35.472Z,1.00
2023-03-30T00:40:01.077Z,1.10
2023-03-30T00:45:29.992Z,0.90
2023-03-30T00:50:55.020Z,0.83
2023-03-30T00:56:27.089Z,1.00
2023-03-30T01:01:57.033Z,0.90
2023-03-30T01:07:21.065Z,1.00
2023-03-30T01:12:46.057Z,0.83
2023-03-30T01:18:26.309Z,0.90
2023-03-30T01:24:34.121Z,1.07
2023-03-30T01:30:19.118Z,0.83
2023-03-30T01:36:17.878Z,0.80
2023-03-30T01:41:50.082Z,0.73
2023-03-30T01:47:17.981Z,0.80
2023-03-30T01:58:17.162Z,1.00
2023-03-30T02:03:43.144Z,1.03
2023-03-30T02:09:08.086Z,0.90
2023-03-30T02:14:39.047Z,1.07
2023-03-30T02:20:03.031Z,1.00
2023-03-30T02:25:26.069Z,0.77
2023-03-30T02:30:54.051Z,1.00
2023-03-30T02:36:28.128Z,1.63
2023-03-30T02:42:13.093Z,1.40
2023-03-30T02:47:51.367Z,1.43
2023-03-30T02:53:23.046Z,1.10
2023-03-30T02:58:55.112Z,1.40
2023-03-30T03:04:22.094Z,1.20
2023-03-30T03:10:09.207Z,1.60
2023-03-30T03:15:33.090Z,2.00
2023-03-30T03:21:01.207Z,1.80
2023-03-30T03:26:25.058Z,1.63
2023-03-30T03:31:48.093Z,1.40
2023-03-30T03:37:16.186Z,1.77
2023-03-30T03:42:40.092Z,1.53
2023-03-30T03:48:05.227Z,1.80
2023-03-30T03:53:41.116Z,1.40
2023-03-30T03:59:05.105Z,1.60
2023-03-30T04:04:29.142Z,1.30
2023-03-30T04:09:54.213Z,1.03
2023-03-30T04:15:31.116Z,1.33
2023-03-30T04:27:49.361Z,1.30
2023-03-30T04:33:52.366Z,1.80
2023-03-30T04:39:28.232Z,1.27
2023-03-30T04:45:16.230Z,1.27
2023-03-30T04:51:00.249Z,1.40
2023-03-30T04:56:42.310Z,1.40
2023-03-30T05:02:30.759Z,1.37
2023-03-30T05:08:00.162Z,1.40
2023-03-30T05:13:43.670Z,1.37
2023-03-30T05:19:37.212Z,1.30
2023-03-30T05:25:10.220Z,1.50
2023-03-30T05:30:55.276Z,1.20
2023-03-30T05:36:52.131Z,1.40
2023-03-30T05:42:28.285Z,1.40
2023-03-30T05:48:02.276Z,1.50
2023-03-30T05:59:53.498Z,1.60
2023-03-30T06:05:31.372Z,1.50
2023-03-30T06:11:02.464Z,1.27
2023-03-30T06:16:35.271Z,2.10
2023-03-30T06:22:04.240Z,2.23
2023-03-30T06:27:39.270Z,2.10
2023-03-30T06:33:02.247Z,2.10
2023-03-30T06:38:32.259Z,1.80
2023-03-30T06:43:57.222Z,2.00
2023-03-30T06:49:27.296Z,2.00
2023-03-30T06:55:25.210Z,1.70
2023-03-30T07:00:51.440Z,2.00
2023-03-30T07:06:37.247Z,1.90
2023-03-30T07:12:04.222Z,2.40
2023-03-30T07:17:30.507Z,1.87
2023-03-30T07:22:55.259Z,1.80
2023-03-30T07:28:20.357Z,2.57
2023-03-30T07:33:49.587Z,2.27
2023-03-30T07:39:15.405Z,1.87
2023-03-30T07:44:41.283Z,1.80
2023-03-30T07:50:08.300Z,1.77
2023-03-30T07:55:32.293Z,1.60
2023-03-30T08:01:05.539Z,2.00
2023-03-30T08:06:49.276Z,1.50
2023-03-30T08:12:14.418Z,2.47
2023-03-30T08:17:37.484Z,2.10
2023-03-30T08:23:02.416Z,1.93
2023-03-30T08:28:28.448Z,1.67
2023-03-30T08:33:52.455Z,1.90
2023-03-30T08:39:18.545Z,2.00
2023-03-30T08:44:44.364Z,2.03
2023-03-30T08:50:17.463Z,2.10
2023-03-30T08:55:49.451Z,1.77
2023-03-30T09:01:22.449Z,1.90
2023-03-30T09:06:57.496Z,1.63
2023-03-30T09:12:38.494Z,1.77
2023-03-30T09:18:07.627Z,1.77
2023-03-30T09:23:33.424Z,1.27
2023-03-30T09:29:06.427Z,1.60
2023-03-30T09:34:41.422Z,1.40
2023-03-30T09:40:17.396Z,1.33
2023-03-30T09:45:45.673Z,1.50
2023-03-30T09:51:11.334Z,1.43
2023-03-30T09:56:43.440Z,1.80
2023-03-30T10:02:26.594Z,1.80
2023-03-30T10:08:06.441Z,1.83
2023-03-30T10:13:33.518Z,1.57
2023-03-30T10:19:04.343Z,1.90
2023-03-30T10:24:35.447Z,1.80
2023-03-30T10:30:26.065Z,1.27
2023-03-30T10:36:01.499Z,1.92
2023-03-30T10:41:30.700Z,1.60
2023-03-30T10:46:55.562Z,1.80
2023-03-30T10:52:26.456Z,1.90
2023-03-30T10:57:59.713Z,1.50
2023-03-30T11:03:33.026Z,1.93
2023-03-30T11:09:04.449Z,1.52
2023-03-30T11:14:38.389Z,2.05
2023-03-30T11:20:04.470Z,1.52
2023-03-30T11:25:36.480Z,1.30
2023-03-30T11:31:06.494Z,1.58
2023-03-30T11:36:38.510Z,1.60
2023-03-30T11:42:17.453Z,0.57
2023-03-30T11:47:59.684Z,0.87
2023-03-30T11:53:35.372Z,0.20
2023-03-30T11:59:05.975Z,0.57
2023-03-30T12:04:38.210Z,0.40
2023-03-30T12:10:10.905Z,0.40
2023-03-30T12:15:49.604Z,0.40
2023-03-30T12:21:23.529Z,0.60
2023-03-30T12:27:03.853Z,0.50
2023-03-30T12:32:45.587Z,0.40
2023-03-30T12:38:13.545Z,0.50
2023-03-30T12:43:44.450Z,0.50
2023-03-30T12:49:15.460Z,0.40
2023-03-30T12:55:11.533Z,0.40
2023-03-30T13:01:12.689Z,0.50
2023-03-30T13:06:40.487Z,0.60
2023-03-30T13:12:37.478Z,0.30
2023-03-30T13:18:12.681Z,0.50
2023-03-30T13:23:44.460Z,0.40
2023-03-30T13:29:20.452Z,0.70
2023-03-30T13:35:09.529Z,0.70
2023-03-30T13:40:46.111Z,0.63
2023-03-30T13:46:28.610Z,0.80
2023-03-30T13:51:53.563Z,0.70
2023-03-30T13:57:21.584Z,0.70
2023-03-30T14:02:45.587Z,0.97
2023-03-30T14:08:10.617Z,0.80
2023-03-30T14:13:38.724Z,0.40
2023-03-30T14:19:19.598Z,0.90
2023-03-30T14:24:44.756Z,0.80
2023-03-30T14:30:10.585Z,0.80
2023-03-30T14:35:33.773Z,0.95
2023-03-30T14:40:57.524Z,0.80
2023-03-30T15:00:14.069Z,0.70
2023-03-30T15:06:15.626Z,1.00
2023-03-30T15:18:16.991Z,1.30
2023-03-30T15:23:37.491Z,1.20
2023-03-30T15:29:07.638Z,1.10
2023-03-30T15:34:31.571Z,0.93
2023-03-30T15:40:03.627Z,1.30
2023-03-30T15:45:27.604Z,0.80
2023-03-30T15:50:51.614Z,1.10
2023-03-30T15:56:21.649Z,1.20
2023-03-30T16:01:59.952Z,0.93
2023-03-30T16:07:28.617Z,0.80
2023-03-30T16:12:57.670Z,0.70
2023-03-30T16:18:20.666Z,0.97
2023-03-30T16:23:50.672Z,0.80
2023-03-30T16:29:22.712Z,1.10
2023-03-30T16:34:48.611Z,0.83
2023-03-30T16:40:25.590Z,1.27
2023-03-30T16:45:54.644Z,0.97
2023-03-30T16:51:38.694Z,1.10
2023-03-30T16:57:05.479Z,1.10
2023-03-30T17:09:47.464Z,1.13
2023-03-30T17:15:13.663Z,1.50
2023-03-30T17:20:43.687Z,1.40
2023-03-30T17:26:08.734Z,1.00
2023-03-30T17:31:33.010Z,0.83
2023-03-30T17:36:59.693Z,1.23
2023-03-30T17:42:22.688Z,1.10
2023-03-30T17:47:45.774Z,1.13
2023-03-30T17:53:16.330Z,1.13
2023-03-30T17:58:40.855Z,1.20
2023-03-30T18:04:09.738Z,1.10
2023-03-30T18:09:21.628Z,1.17
2023-03-30T18:14:38.876Z,1.20
2023-03-30T18:19:42.034Z,1.30
2023-03-30T18:24:56.550Z,1.40
2023-03-30T18:30:37.854Z,0.97
2023-03-30T18:36:08.561Z,1.10
2023-03-30T18:42:05.288Z,1.07
2023-03-30T18:48:06.706Z,0.90
2023-03-30T18:53:44.547Z,1.20
2023-03-30T18:59:15.043Z,1.00
2023-03-30T19:04:30.728Z,1.33
2023-03-30T19:10:08.274Z,1.10
2023-03-30T19:29:07.678Z,1.20
2023-03-30T19:34:30.816Z,1.37
2023-03-30T19:39:53.899Z,1.30
2023-03-30T19:45:19.773Z,0.90
2023-03-30T19:50:55.967Z,1.07
2023-03-30T20:09:26.927Z,1.23
2023-03-30T20:21:09.840Z,1.10
2023-03-30T20:26:36.997Z,1.00
2023-03-30T20:32:05.998Z,1.00
2023-03-30T20:37:29.790Z,0.70
2023-03-30T20:42:55.940Z,0.63
2023-03-30T20:48:22.904Z,0.80
2023-03-30T20:53:48.766Z,0.70
2023-03-30T20:59:16.706Z,0.80
2023-03-30T21:04:41.001Z,0.97
2023-03-30T21:10:03.796Z,1.03
2023-03-30T21:15:53.753Z,1.10
2023-03-30T21:21:24.829Z,1.17
2023-03-30T21:26:47.770Z,1.00
2023-03-30T21:32:14.849Z,1.10
2023-03-30T21:37:38.786Z,0.90
2023-03-30T21:43:03.021Z,0.90
2023-03-30T21:48:30.796Z,1.40
2023-03-30T21:53:56.836Z,1.10
2023-03-30T21:59:20.881Z,0.80
2023-03-30T22:04:45.955Z,0.90
2023-03-30T22:10:09.818Z,1.00
2023-03-30T22:15:32.837Z,1.00
2023-03-30T22:20:58.244Z,1.10
2023-03-30T22:26:20.986Z,0.90
2023-03-30T22:31:44.883Z,0.60
2023-03-30T22:37:10.832Z,0.70
2023-03-30T22:42:34.990Z,0.80
2023-03-30T22:48:08.951Z,0.73
2023-03-30T22:54:48.561Z,0.57
2023-03-30T23:00:34.921Z,0.53
2023-03-30T23:05:58.891Z,0.67
2023-03-30T23:11:21.925Z,0.53
2023-03-30T23:16:46.836Z,0.27
2023-03-30T23:22:09.863Z,0.47
2023-03-30T23:27:32.927Z,0.50
2023-03-30T23:32:57.985Z,0.57
2023-03-30T23:38:20.966Z,0.60
2023-03-30T23:43:43.867Z,0.57
2023-03-30T23:49:10.063Z,0.60
2023-03-30T23:54:32.943Z,0.60
2023-03-30T23:59:56.895Z,0.60
